createdAt,value
2024-01-08T00:02:16.119Z,22.60
2024-01-08T00:04:44.175Z,28.50
2024-01-08T00:07:12.029Z,28.90
2024-01-08T00:09:39.841Z,26.40
2024-01-08T00:12:07.958Z,27.40
2024-01-08T00:14:35.876Z,25.80
2024-01-08T00:17:04.118Z,23.20
2024-01-08T00:19:33.038Z,26.80
2024-01-08T00:22:00.938Z,25.60
2024-01-08T00:24:29.233Z,27.10
2024-01-08T00:26:57.096Z,27.70
2024-01-08T00:29:25.024Z,26.10
2024-01-08T00:31:53.018Z,25.70
2024-01-08T00:34:21.886Z,25.00
2024-01-08T00:36:50.210Z,26.60
2024-01-08T00:39:18.043Z,26.10
2024-01-08T00:41:46.005Z,27.70
2024-01-08T00:44:13.900Z,24.80
2024-01-08T00:46:41.886Z,29.00
2024-01-08T00:49:09.862Z,24.10
2024-01-08T00:51:37.739Z,22.70
2024-01-08T00:54:05.737Z,28.40
2024-01-08T00:56:33.637Z,21.90
2024-01-08T00:59:01.604Z,16.90
2024-01-08T01:01:29.589Z,27.80
2024-01-08T01:03:57.628Z,28.80
2024-01-08T01:06:25.688Z,26.60
2024-01-08T01:08:53.783Z,27.60
2024-01-08T01:11:21.662Z,28.20
2024-01-08T01:13:49.658Z,27.80
2024-01-08T01:16:17.818Z,26.30
2024-01-08T01:18:46.243Z,22.40
2024-01-08T01:21:22.198Z,25.20
2024-01-08T01:23:51.609Z,25.50
2024-01-08T01:26:21.685Z,27.10
2024-01-08T01:28:50.690Z,27.40
2024-01-08T01:31:18.598Z,25.60
2024-01-08T01:33:46.595Z,23.50
2024-01-08T01:36:14.556Z,27.60
2024-01-08T01:38:42.355Z,28.30
2024-01-08T01:41:10.199Z,27.40
2024-01-08T01:43:38.055Z,31.30
2024-01-08T01:46:09.328Z,26.60
2024-01-08T01:48:37.255Z,30.10
2024-01-08T01:51:05.455Z,25.00
2024-01-08T01:53:33.707Z,30.70
2024-01-08T01:56:02.160Z,37.40
2024-01-08T01:58:31.016Z,28.20
2024-01-08T02:00:59.128Z,22.80
2024-01-08T02:03:27.796Z,29.80
2024-01-08T02:05:56.231Z,30.20
2024-01-08T02:08:24.588Z,23.10
2024-01-08T02:10:53.096Z,26.50
2024-01-08T02:13:20.949Z,28.90
2024-01-08T02:15:48.888Z,30.80
2024-01-08T02:18:17.001Z,24.30
2024-01-08T02:20:44.979Z,24.00
2024-01-08T02:23:12.981Z,24.60
2024-01-08T02:25:41.362Z,25.20
2024-01-08T02:28:09.362Z,25.10
2024-01-08T02:30:37.198Z,26.10
2024-01-08T02:33:05.350Z,23.70
2024-01-08T02:35:33.570Z,26.90
2024-01-08T02:38:01.536Z,27.50
2024-01-08T02:40:29.539Z,25.40
2024-01-08T02:42:57.613Z,25.60
2024-01-08T02:45:25.502Z,26.50
2024-01-08T02:47:53.559Z,32.40
2024-01-08T02:50:21.563Z,26.70
2024-01-08T02:52:49.494Z,24.60
2024-01-08T02:55:17.456Z,27.50
2024-01-08T02:57:45.378Z,25.70
2024-01-08T03:00:13.757Z,30.10
2024-01-08T03:02:41.884Z,33.30
2024-01-08T03:05:10.277Z,29.70
2024-01-08T03:07:38.298Z,29.00
2024-01-08T03:10:06.588Z,28.70
2024-01-08T03:12:34.604Z,30.70
2024-01-08T03:15:02.391Z,35.20
2024-01-08T03:17:30.483Z,32.30
2024-01-08T03:19:58.693Z,34.30
2024-01-08T03:22:26.627Z,35.30
2024-01-08T03:24:54.498Z,33.80
2024-01-08T03:27:22.325Z,29.90
2024-01-08T03:29:50.206Z,32.70
2024-01-08T03:32:18.107Z,36.50
2024-01-08T03:34:47.522Z,28.40
2024-01-08T03:37:15.512Z,31.90
2024-01-08T03:39:43.350Z,36.10
2024-01-08T03:42:11.242Z,33.50
2024-01-08T03:44:39.325Z,25.70
2024-01-08T03:47:07.223Z,26.20
2024-01-08T03:49:35.136Z,28.10
2024-01-08T03:52:02.986Z,30.20
2024-01-08T03:54:30.846Z,31.60
2024-01-08T03:56:58.623Z,37.40
2024-01-08T03:59:26.409Z,32.10
2024-01-08T04:01:55.231Z,26.40
2024-01-08T04:04:23.070Z,25.30
2024-01-08T04:06:50.900Z,34.40
2024-01-08T04:09:19.151Z,32.60
2024-01-08T04:11:47.245Z,21.90
2024-01-08T04:14:15.387Z,31.60
2024-01-08T04:16:43.454Z,35.10
2024-01-08T04:19:11.365Z,34.00
2024-01-08T04:21:39.542Z,25.20
2024-01-08T04:24:07.451Z,26.70
2024-01-08T04:26:35.346Z,33.10
2024-01-08T04:29:03.540Z,34.70
2024-01-08T04:31:32.538Z,29.10
2024-01-08T04:34:00.853Z,29.40
2024-01-08T04:36:28.879Z,31.30
2024-01-08T04:38:56.714Z,30.80
2024-01-08T04:41:24.774Z,23.10
2024-01-08T04:43:52.738Z,26.40
2024-01-08T04:46:20.624Z,25.20
2024-01-08T04:48:48.556Z,28.60
2024-01-08T04:51:24.283Z,35.00
2024-01-08T04:53:53.364Z,27.90
2024-01-08T04:56:25.746Z,24.00
2024-01-08T04:58:54.544Z,31.10
2024-01-08T05:01:23.381Z,31.70
2024-01-08T05:03:53.161Z,32.70
2024-01-08T05:06:21.202Z,30.60
2024-01-08T05:08:49.628Z,29.00
2024-01-08T05:11:17.605Z,24.50
2024-01-08T05:13:45.640Z,32.00
2024-01-08T05:16:13.612Z,36.60
2024-01-08T05:18:41.573Z,27.90
2024-01-08T05:21:14.606Z,34.50
2024-01-08T05:23:42.507Z,25.70
2024-01-08T05:26:10.760Z,34.80
2024-01-08T05:28:39.354Z,34.70
2024-01-08T05:31:07.335Z,30.30
2024-01-08T05:33:35.213Z,31.70
2024-01-08T05:36:03.654Z,32.50
2024-01-08T05:38:31.510Z,30.50
2024-01-08T05:40:59.440Z,26.80
2024-01-08T05:43:27.275Z,28.30
2024-01-08T05:45:55.445Z,25.40
2024-01-08T05:48:23.405Z,28.80
2024-01-08T05:50:51.351Z,25.50
2024-01-08T05:53:19.342Z,30.90
2024-01-08T05:55:47.237Z,27.90
2024-01-08T05:58:15.167Z,28.30
2024-01-08T06:00:43.091Z,23.20
2024-01-08T06:03:10.929Z,30.30
2024-01-08T06:05:38.913Z,28.70
2024-01-08T06:08:07.940Z,30.40
2024-01-08T06:10:35.860Z,29.70
2024-01-08T06:13:04.191Z,33.10
2024-01-08T06:15:32.001Z,29.60
2024-01-08T06:17:59.766Z,24.40
2024-01-08T06:20:27.705Z,30.60
2024-01-08T06:22:55.586Z,26.70
2024-01-08T06:25:23.596Z,31.90
2024-01-08T06:27:51.459Z,31.50
2024-01-08T06:30:19.760Z,23.30
2024-01-08T06:32:47.767Z,27.90
2024-01-08T06:35:16.050Z,30.30
2024-01-08T06:37:44.120Z,25.20
2024-01-08T06:40:12.597Z,31.80
2024-01-08T06:42:52.482Z,31.30
2024-01-08T06:45:28.216Z,30.70
2024-01-08T06:47:56.333Z,30.20
2024-01-08T06:50:24.624Z,29.90
2024-01-08T06:52:52.772Z,28.50
2024-01-08T06:55:20.670Z,33.70
2024-01-08T06:57:50.438Z,30.30
2024-01-08T07:00:19.444Z,28.80
2024-01-08T07:02:47.762Z,24.00
2024-01-08T07:05:17.120Z,29.70
2024-01-08T07:07:45.630Z,27.50
2024-01-08T07:10:13.716Z,28.70
2024-01-08T07:12:41.584Z,25.00
2024-01-08T07:15:09.510Z,25.50
2024-01-08T07:17:37.419Z,28.10
2024-01-08T07:20:05.940Z,27.50
2024-01-08T07:22:34.360Z,27.00
2024-01-08T07:25:03.372Z,29.60
2024-01-08T07:27:31.209Z,23.10
2024-01-08T07:29:59.286Z,31.40
2024-01-08T07:32:27.410Z,24.80
2024-01-08T07:34:55.394Z,27.40
2024-01-08T07:37:23.364Z,28.80
2024-01-08T07:39:51.524Z,24.80
2024-01-08T07:42:19.291Z,27.80
2024-01-08T07:44:47.189Z,25.60
2024-01-08T07:47:15.233Z,24.00
2024-01-08T07:49:43.069Z,23.80
2024-01-08T07:52:10.959Z,25.70
2024-01-08T07:54:38.748Z,25.50
2024-01-08T07:57:11.159Z,27.60
2024-01-08T07:59:40.527Z,25.00
2024-01-08T08:02:08.578Z,26.10
2024-01-08T08:04:36.490Z,26.70
2024-01-08T08:07:04.986Z,31.30
2024-01-08T08:09:32.882Z,26.10
2024-01-08T08:12:00.707Z,29.90
2024-01-08T08:14:28.554Z,25.00
2024-01-08T08:16:56.673Z,28.30
2024-01-08T08:19:26.381Z,24.60
2024-01-08T08:21:55.652Z,22.60
2024-01-08T08:24:24.506Z,25.10
2024-01-08T08:26:52.392Z,23.70
2024-01-08T08:29:20.333Z,25.00
2024-01-08T08:31:48.220Z,27.20
2024-01-08T08:34:16.492Z,29.00
2024-01-08T08:36:44.439Z,29.30
2024-01-08T08:39:16.235Z,25.10
2024-01-08T08:41:44.830Z,31.60
2024-01-08T08:44:14.942Z,24.60
2024-01-08T08:46:45.651Z,28.60
2024-01-08T08:49:15.093Z,24.70
2024-01-08T08:51:43.114Z,27.20
2024-01-08T08:54:11.040Z,26.30
2024-01-08T08:56:40.564Z,25.50
2024-01-08T08:59:08.466Z,25.50
2024-01-08T09:01:36.570Z,29.30
2024-01-08T09:04:04.695Z,28.50
2024-01-08T09:06:35.464Z,27.50
2024-01-08T09:09:03.497Z,24.40
2024-01-08T09:11:33.341Z,34.70
2024-01-08T09:14:01.258Z,20.70
2024-01-08T09:16:29.216Z,26.20
2024-01-08T09:18:57.855Z,24.80
2024-01-08T09:21:25.981Z,28.80
2024-01-08T09:23:54.234Z,29.30
2024-01-08T09:26:22.198Z,28.90
2024-01-08T09:28:50.533Z,32.00
2024-01-08T09:31:18.940Z,26.30
2024-01-08T09:33:48.414Z,27.50
2024-01-08T09:36:16.446Z,29.10
2024-01-08T09:38:46.628Z,27.20
2024-01-08T09:41:23.159Z,25.00
2024-01-08T09:43:53.770Z,27.20
2024-01-08T09:46:29.963Z,31.30
2024-01-08T09:48:59.160Z,26.40
2024-01-08T09:51:27.097Z,29.10
2024-01-08T09:53:59.610Z,28.90
2024-01-08T09:56:28.486Z,32.00
2024-01-08T09:58:57.551Z,27.40
2024-01-08T10:01:25.500Z,30.80
2024-01-08T10:03:53.952Z,36.20
2024-01-08T10:06:22.323Z,29.20
2024-01-08T10:08:50.567Z,27.70
2024-01-08T10:11:19.348Z,31.80
2024-01-08T10:13:47.419Z,29.80
2024-01-08T10:16:16.325Z,30.30
2024-01-08T10:18:48.146Z,27.70
2024-01-08T10:21:17.260Z,26.10
2024-01-08T10:23:47.763Z,31.00
2024-01-08T10:26:17.861Z,29.10
2024-01-08T10:28:47.862Z,29.30
2024-01-08T10:31:15.738Z,31.90
2024-01-08T10:33:45.625Z,29.90
2024-01-08T10:36:13.695Z,29.50
2024-01-08T10:38:41.811Z,28.70
2024-01-08T10:41:10.525Z,31.90
2024-01-08T10:43:38.329Z,27.50
2024-01-08T10:46:07.904Z,32.60
2024-01-08T10:48:44.772Z,32.80
2024-01-08T10:51:16.481Z,31.60
2024-01-08T10:53:45.943Z,32.10
2024-01-08T10:56:18.282Z,26.70
2024-01-08T10:58:51.213Z,29.00
2024-01-08T11:01:19.436Z,31.80
2024-01-08T11:03:47.821Z,29.20
2024-01-08T11:06:16.881Z,34.50
2024-01-08T11:08:46.111Z,27.80
2024-01-08T11:11:16.538Z,29.00
2024-01-08T11:13:45.362Z,33.50
2024-01-08T11:16:15.017Z,28.40
2024-01-08T11:18:43.011Z,33.00
2024-01-08T11:21:13.651Z,32.00
2024-01-08T11:23:43.707Z,30.50
2024-01-08T11:26:15.945Z,27.50
2024-01-08T11:28:43.851Z,33.60
2024-01-08T11:31:25.943Z,29.50
2024-01-08T11:34:15.523Z,32.60
2024-01-08T11:36:50.614Z,28.20
2024-01-08T11:39:19.979Z,30.60
2024-01-08T11:41:48.372Z,31.00
2024-01-08T11:44:16.440Z,27.00
2024-01-08T11:46:45.724Z,27.00
2024-01-08T11:49:13.792Z,33.40
2024-01-08T11:51:43.316Z,29.50
2024-01-08T11:54:14.934Z,30.20
2024-01-08T11:56:43.316Z,29.90
2024-01-08T11:59:11.525Z,32.90
2024-01-08T12:01:39.678Z,31.40
2024-01-08T12:04:08.004Z,26.70
2024-01-08T12:06:36.148Z,33.40
2024-01-08T12:09:04.336Z,28.00
2024-01-08T12:11:32.225Z,31.70
2024-01-08T12:14:00.195Z,30.90
2024-01-08T12:16:28.870Z,31.80
2024-01-08T12:18:56.881Z,30.80
2024-01-08T12:21:28.290Z,31.70
2024-01-08T12:23:58.576Z,31.00
2024-01-08T12:26:28.354Z,33.80
2024-01-08T12:28:56.546Z,30.20
2024-01-08T12:31:27.634Z,33.60
2024-01-08T12:33:58.337Z,31.20
2024-01-08T12:36:26.323Z,32.20
2024-01-08T12:38:54.181Z,32.00
2024-01-08T12:41:22.068Z,34.70
2024-01-08T12:43:49.963Z,37.70
2024-01-08T12:46:17.861Z,33.50
2024-01-08T12:48:46.023Z,30.50
2024-01-08T12:51:14.029Z,31.60
2024-01-08T12:53:42.014Z,32.00
2024-01-08T12:56:10.616Z,31.90
2024-01-08T12:58:38.604Z,31.20
2024-01-08T13:01:06.485Z,32.10
2024-01-08T13:03:34.901Z,31.40
2024-01-08T13:06:02.849Z,33.30
2024-01-08T13:08:31.937Z,35.20
2024-01-08T13:10:59.923Z,31.60
2024-01-08T13:13:27.984Z,31.90
2024-01-08T13:15:55.809Z,30.40
2024-01-08T13:18:24.328Z,32.70
2024-01-08T13:20:52.298Z,32.80
2024-01-08T13:23:20.210Z,34.20
2024-01-08T13:25:48.215Z,32.60
2024-01-08T13:28:16.060Z,37.90
2024-01-08T13:30:44.269Z,31.50
2024-01-08T13:33:12.407Z,32.80
2024-01-08T13:35:40.328Z,34.20
2024-01-08T13:38:08.300Z,28.10
2024-01-08T13:40:36.140Z,33.10
2024-01-08T13:43:05.100Z,33.90
2024-01-08T13:45:32.946Z,33.50
2024-01-08T13:48:01.077Z,35.00
2024-01-08T13:50:31.875Z,32.40
2024-01-08T13:52:59.894Z,31.70
2024-01-08T13:55:27.708Z,34.10
2024-01-08T13:57:56.044Z,35.70
2024-01-08T14:00:23.977Z,29.00
2024-01-08T14:02:54.070Z,33.70
2024-01-08T14:05:22.338Z,32.30
2024-01-08T14:07:50.342Z,35.10
2024-01-08T14:10:18.437Z,31.30
2024-01-08T14:12:46.291Z,30.00
2024-01-08T14:15:14.526Z,32.40
2024-01-08T14:17:42.830Z,30.90
2024-01-08T14:20:18.484Z,34.10
2024-01-08T14:22:48.848Z,32.90
2024-01-08T14:25:17.718Z,37.30
2024-01-08T14:27:45.623Z,33.70
2024-01-08T14:30:13.979Z,30.80
2024-01-08T14:32:43.688Z,53.50
2024-01-08T14:35:12.219Z,92.90
2024-01-08T14:37:44.058Z,50.90
2024-01-08T14:40:12.508Z,42.20
2024-01-08T14:42:40.497Z,35.30
2024-01-08T14:45:09.066Z,34.90
2024-01-08T14:47:36.930Z,41.30
2024-01-08T14:50:07.460Z,64.70
2024-01-08T14:52:35.461Z,36.30
2024-01-08T14:55:03.546Z,43.40
2024-01-08T14:57:32.674Z,46.00
2024-01-08T15:00:01.315Z,39.30
2024-01-08T15:02:32.235Z,36.40
2024-01-08T15:05:00.159Z,34.10
2024-01-08T15:07:28.419Z,82.20
2024-01-08T15:09:58.819Z,36.80
2024-01-08T15:12:26.631Z,38.00
2024-01-08T15:14:54.483Z,32.30
2024-01-08T15:17:22.896Z,30.00
2024-01-08T15:19:51.047Z,33.10
2024-01-08T15:22:18.976Z,27.10
2024-01-08T15:24:46.983Z,31.60
2024-01-08T15:27:14.893Z,31.00
2024-01-08T15:29:42.820Z,32.60
2024-01-08T15:32:10.780Z,32.00
2024-01-08T15:34:39.325Z,30.50
2024-01-08T15:37:07.205Z,31.00
2024-01-08T15:39:35.154Z,31.80
2024-01-08T15:42:03.090Z,40.30
2024-01-08T15:44:31.051Z,29.00
2024-01-08T15:46:59.790Z,30.00
2024-01-08T15:49:27.924Z,32.40
2024-01-08T15:51:55.873Z,30.80
2024-01-08T15:54:24.983Z,29.70
2024-01-08T15:56:53.085Z,33.30
2024-01-08T15:59:21.249Z,32.10
2024-01-08T16:01:49.159Z,31.30
2024-01-08T16:04:17.278Z,33.90
2024-01-08T16:06:48.272Z,33.30
2024-01-08T16:09:18.208Z,30.10
2024-01-08T16:11:46.242Z,30.50
2024-01-08T16:14:14.164Z,26.00
2024-01-08T16:16:42.143Z,30.30
2024-01-08T16:19:10.217Z,33.20
2024-01-08T16:21:38.178Z,36.40
2024-01-08T16:24:12.900Z,29.90
2024-01-08T16:26:43.519Z,32.50
2024-01-08T16:29:12.622Z,28.10
2024-01-08T16:31:41.525Z,31.00
2024-01-08T16:34:09.599Z,29.90
2024-01-08T16:36:39.148Z,27.70
2024-01-08T16:39:10.501Z,30.60
2024-01-08T16:41:38.353Z,31.60
2024-01-08T16:44:06.387Z,28.90
2024-01-08T16:46:34.405Z,33.10
2024-01-08T16:49:03.050Z,30.00
2024-01-08T16:51:30.951Z,26.20
2024-01-08T16:54:03.265Z,32.10
2024-01-08T16:56:33.229Z,30.60
2024-01-08T16:59:01.220Z,31.00
2024-01-08T17:01:34.632Z,36.10
2024-01-08T17:04:04.811Z,42.70
2024-01-08T17:06:32.929Z,37.10
2024-01-08T17:09:04.810Z,35.20
2024-01-08T17:11:32.822Z,33.80
2024-01-08T17:14:00.819Z,27.50
2024-01-08T17:16:28.730Z,30.40
2024-01-08T17:18:57.163Z,29.40
2024-01-08T17:21:25.167Z,29.40
2024-01-08T17:23:52.972Z,33.20
2024-01-08T17:26:21.154Z,34.10
2024-01-08T17:28:49.321Z,30.30
2024-01-08T17:31:17.218Z,32.90
2024-01-08T17:33:45.380Z,34.50
2024-01-08T17:36:13.575Z,30.10
2024-01-08T17:38:41.875Z,32.00
2024-01-08T17:41:10.130Z,33.80
2024-01-08T17:43:38.014Z,31.00
2024-01-08T17:46:06.868Z,31.20
2024-01-08T17:48:34.867Z,31.00
2024-01-08T17:51:03.220Z,31.40
2024-01-08T17:53:31.570Z,30.30
2024-01-08T17:55:59.468Z,30.20
2024-01-08T17:58:29.311Z,33.30
2024-01-08T18:00:57.351Z,32.90
2024-01-08T18:03:25.182Z,43.10
2024-01-08T18:05:53.199Z,31.60
2024-01-08T18:08:21.334Z,37.10
2024-01-08T18:10:50.012Z,35.40
2024-01-08T18:13:17.814Z,35.70
2024-01-08T18:15:46.055Z,35.70
2024-01-08T18:18:16.214Z,30.30
2024-01-08T18:20:46.305Z,34.60
2024-01-08T18:23:14.479Z,34.30
2024-01-08T18:25:42.640Z,35.10
2024-01-08T18:28:10.492Z,32.90
2024-01-08T18:30:38.554Z,31.70
2024-01-08T18:33:06.528Z,32.40
2024-01-08T18:35:34.486Z,37.70
2024-01-08T18:38:02.765Z,36.00
2024-01-08T18:40:31.076Z,39.10
2024-01-08T18:42:59.107Z,35.90
2024-01-08T18:45:26.976Z,39.20
2024-01-08T18:47:54.995Z,38.70
2024-01-08T18:50:22.914Z,31.80
2024-01-08T18:52:53.486Z,37.70
2024-01-08T18:55:21.685Z,34.00
2024-01-08T18:57:50.090Z,33.20
2024-01-08T19:00:18.576Z,38.30
2024-01-08T19:02:46.550Z,37.80
2024-01-08T19:05:18.378Z,35.30
2024-01-08T19:07:48.343Z,42.10
2024-01-08T19:10:16.254Z,37.50
2024-01-08T19:12:46.237Z,39.90
2024-01-08T19:15:17.508Z,41.60
2024-01-08T19:17:45.776Z,38.30
2024-01-08T19:20:13.842Z,40.10
2024-01-08T19:22:41.671Z,40.50
2024-01-08T19:25:09.831Z,41.50
2024-01-08T19:27:37.985Z,41.70
2024-01-08T19:30:06.503Z,41.80
2024-01-08T19:32:34.472Z,38.30
2024-01-08T19:35:02.454Z,42.50
2024-01-08T19:37:30.379Z,42.20
2024-01-08T19:39:58.298Z,37.80
2024-01-08T19:42:26.235Z,39.60
2024-01-08T19:44:54.140Z,40.70
2024-01-08T19:47:22.179Z,34.50
2024-01-08T19:49:50.251Z,47.00
2024-01-08T19:52:18.350Z,39.40
2024-01-08T19:54:48.985Z,46.50
2024-01-08T19:57:17.414Z,50.30
2024-01-08T19:59:45.842Z,42.40
2024-01-08T20:02:13.878Z,49.80
2024-01-08T20:04:41.893Z,51.00
2024-01-08T20:07:09.811Z,52.60
2024-01-08T20:09:37.737Z,53.70
2024-01-08T20:12:06.300Z,49.20
2024-01-08T20:14:34.927Z,55.60
2024-01-08T20:17:02.842Z,45.40
2024-01-08T20:19:30.933Z,42.20
2024-01-08T20:21:58.771Z,48.70
2024-01-08T20:24:26.587Z,47.50
2024-01-08T20:26:54.503Z,56.90
2024-01-08T20:29:22.398Z,57.50
2024-01-08T20:32:04.062Z,65.30
2024-01-08T20:34:32.038Z,61.50
2024-01-08T20:37:00.328Z,58.80
2024-01-08T20:39:28.407Z,51.50
2024-01-08T20:41:56.419Z,44.30
2024-01-08T20:44:24.300Z,45.60
2024-01-08T20:46:52.241Z,43.40
2024-01-08T20:49:27.838Z,39.10
2024-01-08T20:51:56.107Z,46.00
2024-01-08T20:54:24.319Z,42.50
2024-01-08T20:56:52.211Z,42.90
2024-01-08T20:59:20.428Z,47.40
2024-01-08T21:01:48.234Z,48.10
2024-01-08T21:04:16.154Z,41.10
2024-01-08T21:06:43.979Z,41.50
2024-01-08T21:09:11.869Z,37.80
2024-01-08T21:11:39.733Z,38.60
2024-01-08T21:14:07.630Z,42.10
2024-01-08T21:16:36.349Z,42.90
2024-01-08T21:19:06.265Z,42.40
2024-01-08T21:21:34.509Z,41.70
2024-01-08T21:24:02.453Z,38.60
2024-01-08T21:26:30.483Z,34.90
2024-01-08T21:28:58.476Z,37.30
2024-01-08T21:31:26.491Z,37.90
2024-01-08T21:33:54.533Z,42.20
2024-01-08T21:36:22.485Z,41.80
2024-01-08T21:38:50.438Z,42.90
2024-01-08T21:41:18.371Z,42.60
2024-01-08T21:43:46.437Z,35.30
2024-01-08T21:46:14.266Z,44.90
2024-01-08T21:48:45.495Z,42.80
2024-01-08T21:51:13.686Z,43.20
2024-01-08T21:53:41.783Z,39.70
2024-01-08T21:56:09.952Z,50.70
2024-01-08T21:58:37.950Z,44.10
2024-01-08T22:01:05.829Z,42.20
2024-01-08T22:03:33.773Z,50.80
2024-01-08T22:06:01.846Z,49.50
2024-01-08T22:08:29.867Z,44.40
2024-01-08T22:10:57.839Z,45.90
2024-01-08T22:13:25.729Z,42.70
2024-01-08T22:15:53.570Z,39.50
2024-01-08T22:18:21.457Z,52.50
2024-01-08T22:20:49.476Z,44.90
2024-01-08T22:23:17.484Z,47.70
2024-01-08T22:25:45.576Z,45.60
2024-01-08T22:28:13.461Z,42.10
2024-01-08T22:30:41.776Z,48.70
2024-01-08T22:33:09.989Z,42.10
2024-01-08T22:35:38.048Z,44.90
2024-01-08T22:38:05.858Z,39.30
2024-01-08T22:40:33.694Z,46.80
2024-01-08T22:43:01.477Z,45.90
2024-01-08T22:45:29.608Z,42.10
2024-01-08T22:47:57.566Z,44.40
2024-01-08T22:50:25.477Z,43.60
2024-01-08T22:52:53.360Z,40.50
2024-01-08T22:55:22.194Z,40.70
2024-01-08T22:57:50.209Z,43.00
2024-01-08T23:00:18.910Z,37.00
2024-01-08T23:02:46.884Z,42.40
2024-01-08T23:05:15.028Z,47.30
2024-01-08T23:07:43.062Z,42.50
2024-01-08T23:10:10.971Z,45.80
2024-01-08T23:12:38.837Z,45.90
2024-01-08T23:15:07.405Z,36.80
2024-01-08T23:17:35.538Z,39.30
2024-01-08T23:20:03.979Z,48.80
2024-01-08T23:22:32.005Z,47.20
2024-01-08T23:24:59.823Z,41.70
2024-01-08T23:27:27.911Z,40.80
2024-01-08T23:29:56.876Z,42.60
2024-01-08T23:32:25.043Z,43.60
2024-01-08T23:34:52.975Z,43.20
2024-01-08T23:37:20.865Z,40.60
2024-01-08T23:39:49.028Z,40.10
2024-01-08T23:42:16.940Z,41.30
2024-01-08T23:44:44.794Z,42.00
2024-01-08T23:47:12.701Z,41.10
2024-01-08T23:49:40.981Z,51.90
2024-01-08T23:52:08.955Z,41.40
2024-01-08T23:54:36.919Z,49.50
2024-01-08T23:57:05.104Z,40.70
2024-01-08T23:59:32.921Z,44.00
